sensor_id;sensor_type;location;lat;lon;timestamp;temperature;humidity
63648;DHT22;49792;48.744;9.176;2023-03-04T00:01:02;17.10;58.10
63648;DHT22;49792;48.744;9.176;2023-03-04T00:03:28;17.10;58.00
63648;DHT22;49792;48.744;9.176;2023-03-04T00:05:53;17.10;57.90
63648;DHT22;49792;48.744;9.176;2023-03-04T00:08:19;17.10;57.90
63648;DHT22;49792;48.744;9.176;2023-03-04T00:10:45;17.10;57.90
63648;DHT22;49792;48.744;9.176;2023-03-04T00:13:10;17.10;57.80
63648;DHT22;49792;48.744;9.176;2023-03-04T00:15:36;17.10;57.80
63648;DHT22;49792;48.744;9.176;2023-03-04T00:18:01;17.00;57.70
63648;DHT22;49792;48.744;9.176;2023-03-04T00:20:27;17.00;57.70
63648;DHT22;49792;48.744;9.176;2023-03-04T00:22:52;17.00;57.70
63648;DHT22;49792;48.744;9.176;2023-03-04T00:25:18;17.00;57.60
63648;DHT22;49792;48.744;9.176;2023-03-04T00:27:43;17.20;57.30
63648;DHT22;49792;48.744;9.176;2023-03-04T00:30:09;17.20;57.30
63648;DHT22;49792;48.744;9.176;2023-03-04T00:32:35;17.30;57.20
63648;DHT22;49792;48.744;9.176;2023-03-04T00:35:00;17.30;57.10
63648;DHT22;49792;48.744;9.176;2023-03-04T00:37:26;17.30;57.00
63648;DHT22;49792;48.744;9.176;2023-03-04T00:39:51;17.30;57.00
63648;DHT22;49792;48.744;9.176;2023-03-04T00:42:17;17.30;56.90
63648;DHT22;49792;48.744;9.176;2023-03-04T00:44:42;17.30;56.70
63648;DHT22;49792;48.744;9.176;2023-03-04T00:47:08;17.30;56.70
63648;DHT22;49792;48.744;9.176;2023-03-04T00:49:33;17.30;56.70
63648;DHT22;49792;48.744;9.176;2023-03-04T00:51:58;17.30;56.60
63648;DHT22;49792;48.744;9.176;2023-03-04T00:54:24;17.40;56.60
63648;DHT22;49792;48.744;9.176;2023-03-04T00:56:49;17.30;56.40
63648;DHT22;49792;48.744;9.176;2023-03-04T00:59:15;17.30;56.40
63648;DHT22;49792;48.744;9.176;2023-03-04T01:01:40;17.20;56.30
63648;DHT22;49792;48.744;9.176;2023-03-04T01:04:06;17.30;56.30
63648;DHT22;49792;48.744;9.176;2023-03-04T01:06:31;17.30;56.30
63648;DHT22;49792;48.744;9.176;2023-03-04T01:08:57;17.20;56.30
63648;DHT22;49792;48.744;9.176;2023-03-04T01:11:22;17.30;56.20
63648;DHT22;49792;48.744;9.176;2023-03-04T01:13:48;17.20;56.20
63648;DHT22;49792;48.744;9.176;2023-03-04T01:16:13;17.20;56.10
63648;DHT22;49792;48.744;9.176;2023-03-04T01:18:39;17.20;56.10
63648;DHT22;49792;48.744;9.176;2023-03-04T01:21:04;17.20;56.00
63648;DHT22;49792;48.744;9.176;2023-03-04T01:23:30;17.20;56.00
63648;DHT22;49792;48.744;9.176;2023-03-04T01:25:55;17.20;56.00
63648;DHT22;49792;48.744;9.176;2023-03-04T01:28:21;17.20;55.90
63648;DHT22;49792;48.744;9.176;2023-03-04T01:30:46;17.20;55.80
63648;DHT22;49792;48.744;9.176;2023-03-04T01:33:12;17.20;55.80
63648;DHT22;49792;48.744;9.176;2023-03-04T01:35:37;17.20;55.80
63648;DHT22;49792;48.744;9.176;2023-03-04T01:38:03;17.20;55.70
63648;DHT22;49792;48.744;9.176;2023-03-04T01:40:29;17.20;55.70
63648;DHT22;49792;48.744;9.176;2023-03-04T01:42:55;17.20;55.70
63648;DHT22;49792;48.744;9.176;2023-03-04T01:45:20;17.20;55.60
63648;DHT22;49792;48.744;9.176;2023-03-04T01:47:47;17.20;55.60
63648;DHT22;49792;48.744;9.176;2023-03-04T01:50:32;17.10;55.50
63648;DHT22;49792;48.744;9.176;2023-03-04T01:52:59;17.20;55.50
63648;DHT22;49792;48.744;9.176;2023-03-04T01:55:24;17.20;55.40
63648;DHT22;49792;48.744;9.176;2023-03-04T01:57:50;17.20;55.40
63648;DHT22;49792;48.744;9.176;2023-03-04T02:00:18;17.20;55.30
63648;DHT22;49792;48.744;9.176;2023-03-04T02:02:44;17.20;55.30
63648;DHT22;49792;48.744;9.176;2023-03-04T02:05:09;17.20;55.20
63648;DHT22;49792;48.744;9.176;2023-03-04T02:07:35;17.20;55.20
63648;DHT22;49792;48.744;9.176;2023-03-04T02:10:01;17.20;55.20
63648;DHT22;49792;48.744;9.176;2023-03-04T02:12:26;17.20;55.10
63648;DHT22;49792;48.744;9.176;2023-03-04T02:14:52;17.20;55.10
63648;DHT22;49792;48.744;9.176;2023-03-04T02:17:23;17.20;55.00
63648;DHT22;49792;48.744;9.176;2023-03-04T02:19:55;17.20;55.00
63648;DHT22;49792;48.744;9.176;2023-03-04T02:22:23;17.20;55.00
63648;DHT22;49792;48.744;9.176;2023-03-04T02:24:51;17.20;55.00
63648;DHT22;49792;48.744;9.176;2023-03-04T02:27:25;17.20;55.00
63648;DHT22;49792;48.744;9.176;2023-03-04T02:29:50;17.10;54.80
63648;DHT22;49792;48.744;9.176;2023-03-04T02:32:16;17.20;54.70
63648;DHT22;49792;48.744;9.176;2023-03-04T02:34:46;17.20;54.80
63648;DHT22;49792;48.744;9.176;2023-03-04T02:37:11;17.20;54.80
63648;DHT22;49792;48.744;9.176;2023-03-04T02:39:44;17.00;54.70
63648;DHT22;49792;48.744;9.176;2023-03-04T02:42:10;17.20;54.80
63648;DHT22;49792;48.744;9.176;2023-03-04T02:44:40;17.10;54.80
63648;DHT22;49792;48.744;9.176;2023-03-04T02:47:07;17.10;54.70
63648;DHT22;49792;48.744;9.176;2023-03-04T02:49:33;17.10;54.70
63648;DHT22;49792;48.744;9.176;2023-03-04T02:52:02;17.10;54.70
63648;DHT22;49792;48.744;9.176;2023-03-04T02:54:27;17.10;54.70
63648;DHT22;49792;48.744;9.176;2023-03-04T02:56:53;17.10;54.70
63648;DHT22;49792;48.744;9.176;2023-03-04T02:59:19;17.10;54.70
63648;DHT22;49792;48.744;9.176;2023-03-04T03:01:45;17.10;54.70
63648;DHT22;49792;48.744;9.176;2023-03-04T03:04:13;17.10;54.70
63648;DHT22;49792;48.744;9.176;2023-03-04T03:06:39;17.10;54.60
63648;DHT22;49792;48.744;9.176;2023-03-04T03:09:05;17.00;54.50
63648;DHT22;49792;48.744;9.176;2023-03-04T03:11:30;17.10;54.70
63648;DHT22;49792;48.744;9.176;2023-03-04T03:13:56;17.10;54.50
63648;DHT22;49792;48.744;9.176;2023-03-04T03:16:21;17.10;54.50
63648;DHT22;49792;48.744;9.176;2023-03-04T03:18:47;17.10;54.50
63648;DHT22;49792;48.744;9.176;2023-03-04T03:21:12;17.00;54.40
63648;DHT22;49792;48.744;9.176;2023-03-04T03:23:41;17.10;54.40
63648;DHT22;49792;48.744;9.176;2023-03-04T03:26:07;17.00;54.20
63648;DHT22;49792;48.744;9.176;2023-03-04T03:28:33;17.10;54.30
63648;DHT22;49792;48.744;9.176;2023-03-04T03:30:58;17.10;54.30
63648;DHT22;49792;48.744;9.176;2023-03-04T03:33:24;17.10;54.20
63648;DHT22;49792;48.744;9.176;2023-03-04T03:35:49;17.10;54.20
63648;DHT22;49792;48.744;9.176;2023-03-04T03:38:15;17.00;54.10
63648;DHT22;49792;48.744;9.176;2023-03-04T03:40:40;17.10;54.10
63648;DHT22;49792;48.744;9.176;2023-03-04T03:43:06;17.10;54.10
63648;DHT22;49792;48.744;9.176;2023-03-04T03:45:31;17.10;54.00
63648;DHT22;49792;48.744;9.176;2023-03-04T03:47:57;17.10;54.00
63648;DHT22;49792;48.744;9.176;2023-03-04T03:50:22;17.10;53.90
63648;DHT22;49792;48.744;9.176;2023-03-04T03:52:48;17.10;53.90
63648;DHT22;49792;48.744;9.176;2023-03-04T03:55:13;17.10;53.80
63648;DHT22;49792;48.744;9.176;2023-03-04T03:57:39;17.10;53.90
63648;DHT22;49792;48.744;9.176;2023-03-04T04:00:05;17.10;53.90
63648;DHT22;49792;48.744;9.176;2023-03-04T04:02:31;17.10;53.90
63648;DHT22;49792;48.744;9.176;2023-03-04T04:04:56;17.10;53.90
63648;DHT22;49792;48.744;9.176;2023-03-04T04:07:21;17.10;53.90
63648;DHT22;49792;48.744;9.176;2023-03-04T04:09:47;17.10;53.80
63648;DHT22;49792;48.744;9.176;2023-03-04T04:12:13;17.10;53.80
63648;DHT22;49792;48.744;9.176;2023-03-04T04:14:39;17.10;53.80
63648;DHT22;49792;48.744;9.176;2023-03-04T04:17:04;17.10;53.90
63648;DHT22;49792;48.744;9.176;2023-03-04T04:19:30;17.00;53.80
63648;DHT22;49792;48.744;9.176;2023-03-04T04:21:55;17.10;53.90
63648;DHT22;49792;48.744;9.176;2023-03-04T04:24:21;17.00;53.80
63648;DHT22;49792;48.744;9.176;2023-03-04T04:26:46;17.00;53.90
63648;DHT22;49792;48.744;9.176;2023-03-04T04:29:12;17.10;53.90
63648;DHT22;49792;48.744;9.176;2023-03-04T04:31:38;17.10;54.00
63648;DHT22;49792;48.744;9.176;2023-03-04T04:34:03;17.00;53.90
63648;DHT22;49792;48.744;9.176;2023-03-04T04:36:29;16.90;53.80
63648;DHT22;49792;48.744;9.176;2023-03-04T04:38:54;17.00;53.80
63648;DHT22;49792;48.744;9.176;2023-03-04T04:41:21;17.00;53.90
63648;DHT22;49792;48.744;9.176;2023-03-04T04:43:47;17.00;53.90
63648;DHT22;49792;48.744;9.176;2023-03-04T04:46:13;17.00;53.80
63648;DHT22;49792;48.744;9.176;2023-03-04T04:48:38;17.00;53.80
63648;DHT22;49792;48.744;9.176;2023-03-04T04:51:04;17.00;53.70
63648;DHT22;49792;48.744;9.176;2023-03-04T04:53:30;17.00;53.60
63648;DHT22;49792;48.744;9.176;2023-03-04T04:55:55;17.00;53.60
63648;DHT22;49792;48.744;9.176;2023-03-04T04:58:20;16.90;53.60
63648;DHT22;49792;48.744;9.176;2023-03-04T05:00:46;17.00;53.60
63648;DHT22;49792;48.744;9.176;2023-03-04T05:03:11;17.00;53.60
63648;DHT22;49792;48.744;9.176;2023-03-04T05:05:37;16.90;53.60
63648;DHT22;49792;48.744;9.176;2023-03-04T05:08:02;17.00;53.60
63648;DHT22;49792;48.744;9.176;2023-03-04T05:10:28;17.00;53.60
63648;DHT22;49792;48.744;9.176;2023-03-04T05:12:53;17.00;53.50
63648;DHT22;49792;48.744;9.176;2023-03-04T05:15:19;17.00;53.50
63648;DHT22;49792;48.744;9.176;2023-03-04T05:17:44;17.00;53.40
63648;DHT22;49792;48.744;9.176;2023-03-04T05:20:10;17.00;53.30
63648;DHT22;49792;48.744;9.176;2023-03-04T05:22:35;17.10;53.30
63648;DHT22;49792;48.744;9.176;2023-03-04T05:25:04;17.10;53.20
63648;DHT22;49792;48.744;9.176;2023-03-04T05:27:29;17.10;53.20
63648;DHT22;49792;48.744;9.176;2023-03-04T05:29:55;17.10;53.20
63648;DHT22;49792;48.744;9.176;2023-03-04T05:32:24;17.10;53.20
63648;DHT22;49792;48.744;9.176;2023-03-04T05:34:49;17.10;53.20
63648;DHT22;49792;48.744;9.176;2023-03-04T05:37:15;17.10;53.10
63648;DHT22;49792;48.744;9.176;2023-03-04T05:39:40;17.10;53.10
63648;DHT22;49792;48.744;9.176;2023-03-04T05:42:05;17.10;53.10
63648;DHT22;49792;48.744;9.176;2023-03-04T05:44:31;17.10;53.10
63648;DHT22;49792;48.744;9.176;2023-03-04T05:46:56;17.10;53.10
63648;DHT22;49792;48.744;9.176;2023-03-04T05:49:22;17.10;53.20
63648;DHT22;49792;48.744;9.176;2023-03-04T05:51:47;17.10;53.10
63648;DHT22;49792;48.744;9.176;2023-03-04T05:54:13;17.10;53.00
63648;DHT22;49792;48.744;9.176;2023-03-04T05:56:38;17.00;53.00
63648;DHT22;49792;48.744;9.176;2023-03-04T05:59:04;17.00;53.00
63648;DHT22;49792;48.744;9.176;2023-03-04T06:01:29;17.00;52.90
63648;DHT22;49792;48.744;9.176;2023-03-04T06:03:55;17.10;53.00
63648;DHT22;49792;48.744;9.176;2023-03-04T06:06:21;17.10;53.10
63648;DHT22;49792;48.744;9.176;2023-03-04T06:08:46;17.00;53.00
63648;DHT22;49792;48.744;9.176;2023-03-04T06:11:12;17.00;52.90
63648;DHT22;49792;48.744;9.176;2023-03-04T06:13:37;17.00;52.90
63648;DHT22;49792;48.744;9.176;2023-03-04T06:16:03;17.00;52.90
63648;DHT22;49792;48.744;9.176;2023-03-04T06:18:29;17.00;52.90
63648;DHT22;49792;48.744;9.176;2023-03-04T06:21:01;17.00;53.00
63648;DHT22;49792;48.744;9.176;2023-03-04T06:23:27;17.00;52.90
63648;DHT22;49792;48.744;9.176;2023-03-04T06:25:54;16.90;52.90
63648;DHT22;49792;48.744;9.176;2023-03-04T06:28:20;17.00;52.90
63648;DHT22;49792;48.744;9.176;2023-03-04T06:30:46;17.00;52.90
63648;DHT22;49792;48.744;9.176;2023-03-04T06:33:11;17.00;52.80
63648;DHT22;49792;48.744;9.176;2023-03-04T06:35:37;17.00;52.80
63648;DHT22;49792;48.744;9.176;2023-03-04T06:38:02;17.00;52.80
63648;DHT22;49792;48.744;9.176;2023-03-04T06:40:28;17.00;52.80
63648;DHT22;49792;48.744;9.176;2023-03-04T06:42:53;17.00;52.70
63648;DHT22;49792;48.744;9.176;2023-03-04T06:45:19;17.00;52.70
63648;DHT22;49792;48.744;9.176;2023-03-04T06:47:44;17.00;52.60
63648;DHT22;49792;48.744;9.176;2023-03-04T06:50:10;16.90;52.60
63648;DHT22;49792;48.744;9.176;2023-03-04T06:52:36;17.00;52.60
63648;DHT22;49792;48.744;9.176;2023-03-04T06:55:02;17.00;52.50
63648;DHT22;49792;48.744;9.176;2023-03-04T06:57:27;17.00;52.50
63648;DHT22;49792;48.744;9.176;2023-03-04T06:59:53;17.10;52.50
63648;DHT22;49792;48.744;9.176;2023-03-04T07:02:18;17.00;52.50
63648;DHT22;49792;48.744;9.176;2023-03-04T07:04:44;17.10;52.40
63648;DHT22;49792;48.744;9.176;2023-03-04T07:07:09;17.00;52.30
63648;DHT22;49792;48.744;9.176;2023-03-04T07:09:35;17.00;52.30
63648;DHT22;49792;48.744;9.176;2023-03-04T07:12:01;17.00;52.30
63648;DHT22;49792;48.744;9.176;2023-03-04T07:14:26;17.20;52.30
63648;DHT22;49792;48.744;9.176;2023-03-04T07:16:52;17.10;52.30
63648;DHT22;49792;48.744;9.176;2023-03-04T07:19:17;17.00;52.20
63648;DHT22;49792;48.744;9.176;2023-03-04T07:21:43;17.10;52.30
63648;DHT22;49792;48.744;9.176;2023-03-04T07:24:08;17.10;52.20
63648;DHT22;49792;48.744;9.176;2023-03-04T07:26:34;17.10;52.10
63648;DHT22;49792;48.744;9.176;2023-03-04T07:28:59;17.20;52.20
63648;DHT22;49792;48.744;9.176;2023-03-04T07:31:26;17.10;52.20
63648;DHT22;49792;48.744;9.176;2023-03-04T07:33:57;17.00;52.10
63648;DHT22;49792;48.744;9.176;2023-03-04T07:36:23;17.00;52.20
63648;DHT22;49792;48.744;9.176;2023-03-04T07:38:49;17.00;52.20
63648;DHT22;49792;48.744;9.176;2023-03-04T07:41:15;17.00;52.20
63648;DHT22;49792;48.744;9.176;2023-03-04T07:43:41;17.00;52.20
63648;DHT22;49792;48.744;9.176;2023-03-04T07:46:06;17.00;52.10
63648;DHT22;49792;48.744;9.176;2023-03-04T07:48:32;17.00;52.10
63648;DHT22;49792;48.744;9.176;2023-03-04T07:51:17;17.00;52.00
63648;DHT22;49792;48.744;9.176;2023-03-04T07:53:44;17.00;52.10
63648;DHT22;49792;48.744;9.176;2023-03-04T07:56:11;17.00;52.20
63648;DHT22;49792;48.744;9.176;2023-03-04T07:58:36;17.00;52.20
63648;DHT22;49792;48.744;9.176;2023-03-04T08:01:07;17.00;52.20
63648;DHT22;49792;48.744;9.176;2023-03-04T08:03:32;17.10;52.30
63648;DHT22;49792;48.744;9.176;2023-03-04T08:05:58;17.00;52.20
63648;DHT22;49792;48.744;9.176;2023-03-04T08:08:23;17.00;52.20
63648;DHT22;49792;48.744;9.176;2023-03-04T08:10:49;17.00;52.20
63648;DHT22;49792;48.744;9.176;2023-03-04T08:13:14;17.00;52.30
63648;DHT22;49792;48.744;9.176;2023-03-04T08:15:40;17.00;52.30
63648;DHT22;49792;48.744;9.176;2023-03-04T08:18:06;17.00;51.80
63648;DHT22;49792;48.744;9.176;2023-03-04T08:20:32;17.00;52.50
63648;DHT22;49792;48.744;9.176;2023-03-04T08:22:57;17.00;53.50
63648;DHT22;49792;48.744;9.176;2023-03-04T08:25:23;17.10;54.30
63648;DHT22;49792;48.744;9.176;2023-03-04T08:27:48;17.10;54.90
63648;DHT22;49792;48.744;9.176;2023-03-04T08:30:14;17.10;54.80
63648;DHT22;49792;48.744;9.176;2023-03-04T08:32:39;17.10;54.80
63648;DHT22;49792;48.744;9.176;2023-03-04T08:35:05;17.10;54.80
63648;DHT22;49792;48.744;9.176;2023-03-04T08:37:30;17.20;55.20
63648;DHT22;49792;48.744;9.176;2023-03-04T08:39:56;17.30;56.30
63648;DHT22;49792;48.744;9.176;2023-03-04T08:42:22;17.40;56.90
63648;DHT22;49792;48.744;9.176;2023-03-04T08:44:48;17.50;59.30
63648;DHT22;49792;48.744;9.176;2023-03-04T08:47:14;17.50;59.10
63648;DHT22;49792;48.744;9.176;2023-03-04T08:49:39;17.40;59.10
63648;DHT22;49792;48.744;9.176;2023-03-04T08:52:05;17.40;58.90
63648;DHT22;49792;48.744;9.176;2023-03-04T08:54:30;17.40;58.60
63648;DHT22;49792;48.744;9.176;2023-03-04T08:56:56;17.40;58.40
63648;DHT22;49792;48.744;9.176;2023-03-04T08:59:21;17.30;58.20
63648;DHT22;49792;48.744;9.176;2023-03-04T09:01:49;17.30;58.20
63648;DHT22;49792;48.744;9.176;2023-03-04T09:04:15;17.20;57.70
63648;DHT22;49792;48.744;9.176;2023-03-04T09:06:40;17.30;57.50
63648;DHT22;49792;48.744;9.176;2023-03-04T09:09:06;17.20;57.00
63648;DHT22;49792;48.744;9.176;2023-03-04T09:11:31;17.20;57.00
63648;DHT22;49792;48.744;9.176;2023-03-04T09:13:57;17.10;57.00
63648;DHT22;49792;48.744;9.176;2023-03-04T09:16:22;17.10;57.00
63648;DHT22;49792;48.744;9.176;2023-03-04T09:18:48;17.00;56.90
63648;DHT22;49792;48.744;9.176;2023-03-04T09:21:13;17.20;56.70
63648;DHT22;49792;48.744;9.176;2023-03-04T09:23:42;17.20;56.70
63648;DHT22;49792;48.744;9.176;2023-03-04T09:28:39;17.20;56.20
63648;DHT22;49792;48.744;9.176;2023-03-04T09:31:09;17.10;56.20
63648;DHT22;49792;48.744;9.176;2023-03-04T09:33:35;17.20;56.00
63648;DHT22;49792;48.744;9.176;2023-03-04T09:36:00;17.20;55.90
63648;DHT22;49792;48.744;9.176;2023-03-04T09:38:26;17.10;55.80
63648;DHT22;49792;48.744;9.176;2023-03-04T09:40:51;17.10;55.80
63648;DHT22;49792;48.744;9.176;2023-03-04T09:43:24;17.10;55.80
63648;DHT22;49792;48.744;9.176;2023-03-04T09:45:57;17.10;55.70
63648;DHT22;49792;48.744;9.176;2023-03-04T09:48:26;17.10;55.50
63648;DHT22;49792;48.744;9.176;2023-03-04T09:53:39;17.10;55.30
63648;DHT22;49792;48.744;9.176;2023-03-04T09:56:09;17.20;55.20
63648;DHT22;49792;48.744;9.176;2023-03-04T09:58:45;17.10;54.80
63648;DHT22;49792;48.744;9.176;2023-03-04T10:01:25;17.10;55.00
63648;DHT22;49792;48.744;9.176;2023-03-04T10:04:00;17.10;55.00
63648;DHT22;49792;48.744;9.176;2023-03-04T10:06:27;17.10;55.00
63648;DHT22;49792;48.744;9.176;2023-03-04T10:08:54;17.10;55.00
63648;DHT22;49792;48.744;9.176;2023-03-04T10:11:24;17.10;54.80
63648;DHT22;49792;48.744;9.176;2023-03-04T10:13:59;17.10;54.70
63648;DHT22;49792;48.744;9.176;2023-03-04T10:16:32;17.10;54.70
63648;DHT22;49792;48.744;9.176;2023-03-04T10:19:45;17.10;54.50
63648;DHT22;49792;48.744;9.176;2023-03-04T10:21:45;17.30;54.40
63648;DHT22;49792;48.744;9.176;2023-03-04T10:24:15;17.20;54.50
63648;DHT22;49792;48.744;9.176;2023-03-04T10:26:45;17.30;54.60
63648;DHT22;49792;48.744;9.176;2023-03-04T10:29:13;17.30;54.40
63648;DHT22;49792;48.744;9.176;2023-03-04T10:31:39;17.30;54.50
63648;DHT22;49792;48.744;9.176;2023-03-04T10:34:08;17.30;54.50
63648;DHT22;49792;48.744;9.176;2023-03-04T10:36:55;17.30;54.30
63648;DHT22;49792;48.744;9.176;2023-03-04T10:44:32;17.30;54.10
63648;DHT22;49792;48.744;9.176;2023-03-04T10:46:58;17.30;53.90
63648;DHT22;49792;48.744;9.176;2023-03-04T10:49:25;17.30;53.90
63648;DHT22;49792;48.744;9.176;2023-03-04T10:51:52;17.30;53.70
63648;DHT22;49792;48.744;9.176;2023-03-04T10:54:33;17.30;53.70
63648;DHT22;49792;48.744;9.176;2023-03-04T10:57:04;17.30;53.50
63648;DHT22;49792;48.744;9.176;2023-03-04T10:59:41;17.00;53.80
63648;DHT22;49792;48.744;9.176;2023-03-04T11:02:29;17.20;53.30
63648;DHT22;49792;48.744;9.176;2023-03-04T11:05:04;17.40;52.80
63648;DHT22;49792;48.744;9.176;2023-03-04T11:07:30;17.50;53.10
63648;DHT22;49792;48.744;9.176;2023-03-04T11:10:05;17.50;53.00
63648;DHT22;49792;48.744;9.176;2023-03-04T11:12:31;17.70;53.00
63648;DHT22;49792;48.744;9.176;2023-03-04T11:14:58;17.70;53.90
63648;DHT22;49792;48.744;9.176;2023-03-04T11:17:25;17.60;54.50
63648;DHT22;49792;48.744;9.176;2023-03-04T11:19:53;17.60;55.00
63648;DHT22;49792;48.744;9.176;2023-03-04T11:22:20;17.50;54.90
63648;DHT22;49792;48.744;9.176;2023-03-04T11:25:04;17.40;56.70
63648;DHT22;49792;48.744;9.176;2023-03-04T11:27:41;17.20;56.20
63648;DHT22;49792;48.744;9.176;2023-03-04T11:30:18;17.10;55.60
63648;DHT22;49792;48.744;9.176;2023-03-04T11:32:46;17.00;54.70
63648;DHT22;49792;48.744;9.176;2023-03-04T11:42:55;16.90;52.30
63648;DHT22;49792;48.744;9.176;2023-03-04T11:45:30;17.10;52.30
63648;DHT22;49792;48.744;9.176;2023-03-04T11:48:11;17.20;52.20
63648;DHT22;49792;48.744;9.176;2023-03-04T11:50:52;17.30;52.10
63648;DHT22;49792;48.744;9.176;2023-03-04T12:01:23;17.40;50.20
63648;DHT22;49792;48.744;9.176;2023-03-04T12:09:08;17.30;50.60
63648;DHT22;49792;48.744;9.176;2023-03-04T12:14:12;17.70;51.70
63648;DHT22;49792;48.744;9.176;2023-03-04T12:16:47;17.70;52.50
63648;DHT22;49792;48.744;9.176;2023-03-04T12:24:33;17.70;52.30
63648;DHT22;49792;48.744;9.176;2023-03-04T12:29:58;17.70;52.60
63648;DHT22;49792;48.744;9.176;2023-03-04T12:32:40;17.70;52.40
63648;DHT22;49792;48.744;9.176;2023-03-04T12:37:56;17.70;52.40
63648;DHT22;49792;48.744;9.176;2023-03-04T12:40:41;17.70;52.70
63648;DHT22;49792;48.744;9.176;2023-03-04T12:48:31;17.70;52.50
63648;DHT22;49792;48.744;9.176;2023-03-04T12:51:02;17.70;52.40
63648;DHT22;49792;48.744;9.176;2023-03-04T12:53:47;17.70;53.50
63648;DHT22;49792;48.744;9.176;2023-03-04T12:56:36;17.70;53.50
63648;DHT22;49792;48.744;9.176;2023-03-04T12:59:02;17.70;54.30
63648;DHT22;49792;48.744;9.176;2023-03-04T13:01:31;17.70;53.90
63648;DHT22;49792;48.744;9.176;2023-03-04T13:04:20;17.30;52.80
63648;DHT22;49792;48.744;9.176;2023-03-04T13:06:49;16.80;51.40
63648;DHT22;49792;48.744;9.176;2023-03-04T13:09:27;17.20;52.80
63648;DHT22;49792;48.744;9.176;2023-03-04T13:12:01;17.30;53.90
63648;DHT22;49792;48.744;9.176;2023-03-04T13:14:28;17.30;53.70
63648;DHT22;49792;48.744;9.176;2023-03-04T13:16:58;17.00;53.20
63648;DHT22;49792;48.744;9.176;2023-03-04T13:24:54;15.20;46.40
63648;DHT22;49792;48.744;9.176;2023-03-04T13:30:09;16.80;51.10
63648;DHT22;49792;48.744;9.176;2023-03-04T13:32:50;17.20;51.80
63648;DHT22;49792;48.744;9.176;2023-03-04T13:38:19;17.40;52.20
63648;DHT22;49792;48.744;9.176;2023-03-04T13:53:54;17.50;55.10
63648;DHT22;49792;48.744;9.176;2023-03-04T14:06:43;18.00;57.30
63648;DHT22;49792;48.744;9.176;2023-03-04T14:09:12;18.00;60.50
63648;DHT22;49792;48.744;9.176;2023-03-04T14:11:39;17.90;57.20
63648;DHT22;49792;48.744;9.176;2023-03-04T14:14:12;17.80;56.70
63648;DHT22;49792;48.744;9.176;2023-03-04T14:16:39;17.80;56.30
63648;DHT22;49792;48.744;9.176;2023-03-04T14:19:13;17.70;56.80
63648;DHT22;49792;48.744;9.176;2023-03-04T14:21:43;17.70;56.20
63648;DHT22;49792;48.744;9.176;2023-03-04T14:24:12;17.60;56.10
63648;DHT22;49792;48.744;9.176;2023-03-04T14:26:38;17.70;56.10
63648;DHT22;49792;48.744;9.176;2023-03-04T14:29:17;17.60;56.70
63648;DHT22;49792;48.744;9.176;2023-03-04T14:31:44;17.50;55.60
63648;DHT22;49792;48.744;9.176;2023-03-04T14:34:18;17.50;55.60
63648;DHT22;49792;48.744;9.176;2023-03-04T14:36:46;17.40;55.60
63648;DHT22;49792;48.744;9.176;2023-03-04T14:39:12;17.40;55.80
63648;DHT22;49792;48.744;9.176;2023-03-04T14:41:39;17.40;55.10
63648;DHT22;49792;48.744;9.176;2023-03-04T14:46:38;17.50;55.20
63648;DHT22;49792;48.744;9.176;2023-03-04T14:49:05;17.50;55.00
63648;DHT22;49792;48.744;9.176;2023-03-04T14:51:42;17.50;56.10
63648;DHT22;49792;48.744;9.176;2023-03-04T14:56:54;17.10;55.10
63648;DHT22;49792;48.744;9.176;2023-03-04T14:59:27;17.00;55.30
63648;DHT22;49792;48.744;9.176;2023-03-04T15:01:52;17.00;55.30
63648;DHT22;49792;48.744;9.176;2023-03-04T15:04:18;17.00;55.20
63648;DHT22;49792;48.744;9.176;2023-03-04T15:06:48;17.00;55.70
63648;DHT22;49792;48.744;9.176;2023-03-04T15:09:24;17.00;55.50
63648;DHT22;49792;48.744;9.176;2023-03-04T15:11:59;17.10;55.70
63648;DHT22;49792;48.744;9.176;2023-03-04T15:17:21;17.30;55.50
63648;DHT22;49792;48.744;9.176;2023-03-04T15:19:56;17.60;55.30
63648;DHT22;49792;48.744;9.176;2023-03-04T15:22:22;17.50;54.90
63648;DHT22;49792;48.744;9.176;2023-03-04T15:24:47;17.40;55.00
63648;DHT22;49792;48.744;9.176;2023-03-04T15:27:13;17.30;55.10
63648;DHT22;49792;48.744;9.176;2023-03-04T15:29:41;17.10;55.00
63648;DHT22;49792;48.744;9.176;2023-03-04T15:32:08;17.10;55.00
63648;DHT22;49792;48.744;9.176;2023-03-04T15:34:33;17.10;55.10
63648;DHT22;49792;48.744;9.176;2023-03-04T15:36:59;17.00;55.40
63648;DHT22;49792;48.744;9.176;2023-03-04T15:39:24;17.00;55.40
63648;DHT22;49792;48.744;9.176;2023-03-04T15:41:51;17.00;55.40
63648;DHT22;49792;48.744;9.176;2023-03-04T15:44:17;17.10;55.20
63648;DHT22;49792;48.744;9.176;2023-03-04T15:46:43;17.10;55.20
63648;DHT22;49792;48.744;9.176;2023-03-04T15:49:08;17.10;55.10
63648;DHT22;49792;48.744;9.176;2023-03-04T15:51:34;17.10;55.20
63648;DHT22;49792;48.744;9.176;2023-03-04T15:53:59;17.10;55.00
63648;DHT22;49792;48.744;9.176;2023-03-04T15:56:26;17.10;54.70
63648;DHT22;49792;48.744;9.176;2023-03-04T15:58:53;17.10;55.40
63648;DHT22;49792;48.744;9.176;2023-03-04T16:01:19;17.10;55.20
63648;DHT22;49792;48.744;9.176;2023-03-04T16:03:44;17.30;55.00
63648;DHT22;49792;48.744;9.176;2023-03-04T16:06:13;17.40;54.70
63648;DHT22;49792;48.744;9.176;2023-03-04T16:08:39;17.40;54.60
63648;DHT22;49792;48.744;9.176;2023-03-04T16:11:06;17.40;54.50
63648;DHT22;49792;48.744;9.176;2023-03-04T16:13:34;17.50;54.40
63648;DHT22;49792;48.744;9.176;2023-03-04T16:16:00;17.50;54.40
63648;DHT22;49792;48.744;9.176;2023-03-04T16:18:25;17.40;54.30
63648;DHT22;49792;48.744;9.176;2023-03-04T16:20:51;17.40;54.40
63648;DHT22;49792;48.744;9.176;2023-03-04T16:23:21;17.40;54.30
63648;DHT22;49792;48.744;9.176;2023-03-04T16:25:47;17.40;54.40
63648;DHT22;49792;48.744;9.176;2023-03-04T16:28:13;17.50;54.30
63648;DHT22;49792;48.744;9.176;2023-03-04T16:30:39;17.50;54.10
63648;DHT22;49792;48.744;9.176;2023-03-04T16:33:05;17.50;54.10
63648;DHT22;49792;48.744;9.176;2023-03-04T16:35:31;17.50;54.20
63648;DHT22;49792;48.744;9.176;2023-03-04T16:37:58;17.50;54.30
63648;DHT22;49792;48.744;9.176;2023-03-04T16:40:28;17.50;54.30
63648;DHT22;49792;48.744;9.176;2023-03-04T16:42:54;17.50;54.20
63648;DHT22;49792;48.744;9.176;2023-03-04T16:45:23;17.50;53.90
63648;DHT22;49792;48.744;9.176;2023-03-04T16:47:49;17.60;53.60
63648;DHT22;49792;48.744;9.176;2023-03-04T16:50:19;17.70;53.50
63648;DHT22;49792;48.744;9.176;2023-03-04T16:52:47;17.70;53.30
63648;DHT22;49792;48.744;9.176;2023-03-04T16:55:17;17.70;53.30
63648;DHT22;49792;48.744;9.176;2023-03-04T16:57:43;17.80;53.30
63648;DHT22;49792;48.744;9.176;2023-03-04T17:00:09;17.80;53.40
63648;DHT22;49792;48.744;9.176;2023-03-04T17:02:34;17.80;53.30
63648;DHT22;49792;48.744;9.176;2023-03-04T17:05:00;17.80;53.40